Time;durP1;ratioP1;P1;durP2;ratioP2;P2;SDS_P1;SDS_P2;PMS_P1;PMS_P2;Temp;Humidity;BMP_temperature;BMP_pressure;BME280_temperature;BME280_humidity;BME280_pressure;Samples;Min_cycle;Max_cycle;Signal;HPM_P1;HPM_P2
2022/09/16 00:00:44;;;;;;;0.00;0.00;;;11.00;99.90;;;;;;5013737;28;20144;-71
2022/09/16 00:03:14;;;;;;;5.40;0.15;;;9.50;99.90;;;;;;5013975;28;20065;-76
2022/09/16 00:05:45;;;;;;;0.03;0.03;;;9.60;99.90;;;;;;5017141;28;20087;-73
2022/09/16 00:08:21;;;;;;;0.00;0.00;;;9.20;99.90;;;;;;5035952;28;20049;-74
2022/09/16 00:11:05;;;;;;;0.00;0.00;;;9.60;99.90;;;;;;5034317;28;20109;-74
2022/09/16 00:13:33;;;;;;;0.00;0.00;;;9.30;99.90;;;;;;5035138;28;20087;-72
2022/09/16 00:16:06;;;;;;;0.00;0.00;;;9.50;99.90;;;;;;5052647;28;20049;-75
2022/09/16 00:18:41;;;;;;;0.00;0.00;;;9.50;99.90;;;;;;5035173;28;20048;-74
2022/09/16 00:21:14;;;;;;;0.00;0.00;;;9.60;99.90;;;;;;5033882;28;20056;-73
2022/09/16 00:24:09;;;;;;;0.00;0.00;;;9.70;99.90;;;;;;5035080;28;20098;-74
2022/09/16 00:26:34;;;;;;;0.00;0.00;;;9.80;99.90;;;;;;5054652;28;20048;-75
2022/09/16 00:29:00;;;;;;;0.22;0.20;;;9.90;99.90;;;;;;5057876;28;20047;-75
2022/09/16 00:31:26;;;;;;;0.00;0.00;;;10.00;99.90;;;;;;5059402;28;20041;-74
2022/09/16 00:33:51;;;;;;;0.00;0.00;;;10.10;99.90;;;;;;5054802;28;20072;-74
2022/09/16 00:36:18;;;;;;;0.00;0.00;;;11.30;99.90;;;;;;5038877;28;20087;-75
2022/09/16 00:38:44;;;;;;;0.10;0.00;;;10.20;99.90;;;;;;5056911;28;20072;-75
2022/09/16 00:41:19;;;;;;;0.00;0.00;;;10.20;99.90;;;;;;5058259;28;20045;-74
2022/09/16 00:44:08;;;;;;;0.00;0.00;;;10.10;99.90;;;;;;5056585;28;20503;-78
2022/09/16 00:47:15;;;;;;;1.52;0.45;;;10.10;99.90;;;;;;5039757;28;20044;-75
2022/09/16 00:49:58;;;;;;;0.20;0.10;;;10.80;99.90;;;;;;5028397;28;20079;-77
2022/09/16 00:52:32;;;;;;;0.00;0.00;;;10.20;99.90;;;;;;5019439;28;20053;-75
2022/09/16 00:55:12;;;;;;;0.00;0.00;;;10.90;99.90;;;;;;5055441;28;20117;-74
2022/09/16 00:57:40;;;;;;;0.00;0.00;;;9.60;99.90;;;;;;5006233;28;20049;-72
2022/09/16 01:00:19;;;;;;;0.00;0.00;;;10.20;99.90;;;;;;5038075;28;20175;-75
2022/09/16 01:02:46;;;;;;;0.00;0.00;;;10.10;99.90;;;;;;5007452;28;20041;-75
2022/09/16 01:05:16;;;;;;;0.00;0.00;;;10.50;99.90;;;;;;5037808;28;20052;-73
2022/09/16 01:07:50;;;;;;;0.00;0.00;;;11.00;99.90;;;;;;5021846;28;20118;-75
2022/09/16 01:10:19;;;;;;;3.70;1.38;;;10.10;99.90;;;;;;5038840;28;20392;-74
2022/09/16 01:12:48;;;;;;;0.00;0.00;;;11.20;99.90;;;;;;5037043;28;20053;-75
2022/09/16 01:15:16;;;;;;;0.00;0.00;;;10.20;99.90;;;;;;5057312;28;20061;-75
2022/09/16 01:18:00;;;;;;;0.00;0.00;;;10.20;99.90;;;;;;5056152;28;20106;-74
2022/09/16 01:20:45;;;;;;;0.00;0.00;;;10.20;99.90;;;;;;5056925;28;20044;-73
2022/09/16 01:23:25;;;;;;;0.00;0.00;;;10.10;99.90;;;;;;5054427;28;20044;-73
2022/09/16 01:26:44;;;;;;;6.93;0.43;;;10.00;99.90;;;;;;5037343;28;20139;-73
2022/09/16 01:29:48;;;;;;;0.00;0.00;;;10.00;99.90;;;;;;4983288;28;20118;-74
2022/09/16 01:32:41;;;;;;;0.00;0.00;;;10.10;99.90;;;;;;4999811;28;20091;-72
2022/09/16 01:35:40;;;;;;;0.00;0.00;;;10.10;99.90;;;;;;5036691;28;20095;-73
2022/09/16 01:38:15;;;;;;;0.00;0.00;;;10.10;99.90;;;;;;5055520;28;20056;-75
2022/09/16 01:41:21;;;;;;;0.05;0.05;;;10.10;99.90;;;;;;5053936;28;20470;-75
2022/09/16 01:43:58;;;;;;;1.08;0.60;;;10.00;99.90;;;;;;4998685;28;20055;-74
2022/09/16 01:47:06;;;;;;;0.00;0.00;;;10.00;99.90;;;;;;5034888;28;20056;-74
2022/09/16 01:49:37;;;;;;;0.00;0.00;;;9.90;99.90;;;;;;5053218;28;20110;-74
2022/09/16 01:52:24;;;;;;;0.00;0.00;;;9.80;99.90;;;;;;5053156;28;20053;-75
2022/09/16 01:55:00;;;;;;;;;;;9.70;99.90;;;;;;5053370;28;20044;-72
2022/09/16 01:57:41;;;;;;;0.00;0.00;;;9.60;99.90;;;;;;5142454;22;19928;-86
2022/09/16 02:00:12;;;;;;;0.00;0.00;;;9.50;99.90;;;;;;4993127;28;20065;-86
2022/09/16 02:03:04;;;;;;;0.00;0.00;;;9.50;99.90;;;;;;5006388;28;20050;-86
2022/09/16 02:05:39;;;;;;;0.10;0.10;;;9.60;99.90;;;;;;5010777;28;20041;-86
2022/09/16 02:08:22;;;;;;;0.00;0.00;;;9.50;99.90;;;;;;5026465;28;20057;-85
2022/09/16 02:10:54;;;;;;;0.00;0.00;;;9.50;99.90;;;;;;5026205;28;20071;-86
2022/09/16 02:13:26;;;;;;;0.00;0.00;;;9.50;99.90;;;;;;5026001;28;20496;-86
2022/09/16 02:15:58;;;;;;;0.00;0.00;;;9.50;99.90;;;;;;5024122;28;20834;-86
2022/09/16 02:18:28;;;;;;;0.03;0.03;;;9.40;99.90;;;;;;5026154;28;20064;-86
2022/09/16 02:20:56;;;;;;;0.10;0.10;;;9.40;99.90;;;;;;5008109;28;20099;-86
2022/09/16 02:23:27;;;;;;;0.08;0.00;;;10.20;99.90;;;;;;5025818;28;20049;-86
2022/09/16 02:25:55;;;;;;;0.00;0.00;;;9.30;99.90;;;;;;5026162;28;20076;-86
2022/09/16 02:28:33;;;;;;;0.00;0.00;;;9.40;99.90;;;;;;5010801;28;20427;-86
2022/09/16 02:31:01;;;;;;;0.00;0.00;;;9.50;99.90;;;;;;5029947;28;20079;-88
2022/09/16 02:33:35;;;;;;;0.00;0.00;;;9.60;99.90;;;;;;5012016;28;20412;-88
2022/09/16 02:36:04;;;;;;;0.40;0.38;;;10.30;99.90;;;;;;5011909;28;20106;-88
2022/09/16 02:38:35;;;;;;;0.00;0.00;;;9.60;99.90;;;;;;5028509;28;20060;-87
2022/09/16 02:41:01;;;;;;;0.17;0.17;;;9.60;99.90;;;;;;5029858;28;20045;-87
2022/09/16 02:43:27;;;;;;;0.80;0.22;;;10.10;99.90;;;;;;5011601;28;20954;-87
2022/09/16 02:46:03;;;;;;;2.53;1.23;;;10.60;99.90;;;;;;4995356;28;20053;-87
2022/09/16 02:49:06;;;;;;;0.23;0.23;;;9.60;99.90;;;;;;5029508;28;20123;-87
2022/09/16 02:51:53;;;;;;;0.65;0.20;;;9.70;99.90;;;;;;5011348;28;20292;-87
2022/09/16 02:54:18;;;;;;;;;;;9.80;99.90;;;;;;5029706;28;20053;-86
2022/09/16 02:56:45;;;;;;;0.20;0.20;;;9.80;99.90;;;;;;5028985;28;19932;-86
2022/09/16 02:59:13;;;;;;;0.00;0.00;;;9.90;99.90;;;;;;5010945;28;20057;-87
2022/09/16 03:01:44;;;;;;;0.00;0.00;;;9.90;99.90;;;;;;5029527;28;20069;-88
2022/09/16 03:04:13;;;;;;;0.15;0.15;;;10.00;99.90;;;;;;4996125;28;20113;-88
2022/09/16 03:06:39;;;;;;;0.00;0.00;;;10.00;99.90;;;;;;5029795;28;20053;-88
2022/09/16 03:09:08;;;;;;;0.35;0.32;;;10.60;99.90;;;;;;5011538;28;20148;-88
2022/09/16 03:11:46;;;;;;;0.00;0.00;;;10.00;99.90;;;;;;5011564;28;20111;-87
2022/09/16 03:14:11;;;;;;;0.00;0.00;;;10.00;99.90;;;;;;5029288;28;20057;-88
2022/09/16 03:17:08;;;;;;;0.85;0.38;;;9.80;99.90;;;;;;5011292;28;20688;-87
2022/09/16 03:19:58;;;;;;;0.00;0.00;;;9.90;99.90;;;;;;5011417;28;20052;-87
2022/09/16 03:22:40;;;;;;;0.00;0.00;;;9.90;99.90;;;;;;5010984;28;20606;-87
2022/09/16 03:25:21;;;;;;;0.25;0.20;;;10.40;99.90;;;;;;4994739;28;20056;-87
2022/09/16 03:28:11;;;;;;;0.00;0.00;;;9.90;99.90;;;;;;4995013;28;20140;-87
2022/09/16 03:30:59;;;;;;;0.05;0.05;;;9.90;99.90;;;;;;5028747;28;20049;-86
2022/09/16 03:33:36;;;;;;;0.00;0.00;;;9.80;99.90;;;;;;5028386;28;20064;-87
2022/09/16 03:36:06;;;;;;;0.10;0.08;;;9.60;99.90;;;;;;5010720;28;20049;-87
2022/09/16 03:38:35;;;;;;;0.08;0.08;;;9.50;99.90;;;;;;5010097;28;20049;-87
2022/09/16 03:41:06;;;;;;;0.32;0.25;;;10.20;99.90;;;;;;5010345;28;20447;-87
2022/09/16 03:43:32;;;;;;;0.00;0.00;;;9.20;99.90;;;;;;5028661;28;20058;-87
2022/09/16 03:45:57;;;;;;;0.65;0.10;;;9.20;99.90;;;;;;4994095;28;20049;-86
2022/09/16 03:48:23;;;;;;;0.00;0.00;;;9.10;99.90;;;;;;5010532;28;20056;-87
2022/09/16 03:50:49;;;;;;;0.00;0.00;;;9.10;99.90;;;;;;5028515;28;20049;-87
2022/09/16 03:53:15;;;;;;;0.00;0.00;;;9.00;99.90;;;;;;5028069;28;20073;-86
2022/09/16 03:55:41;;;;;;;0.00;0.00;;;8.90;99.90;;;;;;5028197;28;20053;-86
2022/09/16 03:58:06;;;;;;;0.00;0.00;;;8.80;99.90;;;;;;4993545;28;20182;-87
2022/09/16 04:00:32;;;;;;;0.00;0.00;;;8.80;99.90;;;;;;5010294;28;20435;-87
2022/09/16 04:02:59;;;;;;;0.00;0.00;;;8.80;99.90;;;;;;5010369;28;20136;-86
2022/09/16 04:05:25;;;;;;;0.00;0.00;;;8.90;99.90;;;;;;5010264;28;20049;-86
2022/09/16 04:07:50;;;;;;;0.00;0.00;;;9.00;99.90;;;;;;5009691;28;20068;-86
2022/09/16 04:10:17;;;;;;;0.00;0.00;;;9.10;99.90;;;;;;5009592;28;20057;-86
2022/09/16 04:12:42;;;;;;;0.00;0.00;;;9.10;99.90;;;;;;5027743;28;20100;-87
2022/09/16 04:15:08;;;;;;;0.00;0.00;;;9.50;99.90;;;;;;5027911;28;20049;-86
2022/09/16 04:17:34;;;;;;;0.00;0.00;;;8.60;99.90;;;;;;5027500;28;20059;-86
2022/09/16 04:20:00;;;;;;;0.00;0.00;;;9.00;99.90;;;;;;5027393;28;20549;-86
2022/09/16 04:22:30;;;;;;;0.00;0.00;;;8.90;99.90;;;;;;5027212;28;20053;-86
2022/09/16 04:24:56;;;;;;;1.13;0.60;;;8.80;99.90;;;;;;4992996;28;20053;-86
2022/09/16 04:27:22;;;;;;;0.00;0.00;;;8.70;99.90;;;;;;5027359;28;20045;-87
2022/09/16 04:29:47;;;;;;;0.00;0.00;;;9.20;99.90;;;;;;4992916;28;20060;-86
2022/09/16 04:32:13;;;;;;;0.00;0.00;;;8.60;99.90;;;;;;5009626;28;20060;-86
2022/09/16 04:34:39;;;;;;;3.15;1.00;;;9.60;99.90;;;;;;5026909;28;20499;-87
2022/09/16 04:37:05;;;;;;;0.00;0.00;;;8.50;99.90;;;;;;5027151;28;20041;-87
2022/09/16 04:39:30;;;;;;;0.08;0.08;;;8.50;99.90;;;;;;5027074;28;20394;-87
2022/09/16 04:41:56;;;;;;;0.00;0.00;;;8.40;99.90;;;;;;5008726;28;20060;-87
2022/09/16 04:44:21;;;;;;;0.00;0.00;;;8.30;99.90;;;;;;4992929;28;20045;-87
2022/09/16 04:46:50;;;;;;;0.10;0.03;;;8.30;99.90;;;;;;5009602;28;20476;-86
2022/09/16 04:49:16;;;;;;;0.10;0.08;;;8.20;99.90;;;;;;5027088;28;20118;-86
2022/09/16 04:51:42;;;;;;;0.00;0.00;;;8.10;99.90;;;;;;5026763;28;20080;-86
2022/09/16 04:54:08;;;;;;;0.47;0.35;;;8.10;99.90;;;;;;4992764;28;20086;-86
2022/09/16 04:56:34;;;;;;;0.43;0.22;;;8.10;99.90;;;;;;5008895;28;20053;-87
2022/09/16 04:59:02;;;;;;;0.00;0.00;;;8.40;99.90;;;;;;5026626;28;20128;-87
2022/09/16 05:01:31;;;;;;;0.00;0.00;;;8.10;99.90;;;;;;4992703;28;20041;-86
2022/09/16 05:03:59;;;;;;;0.00;0.00;;;8.20;99.90;;;;;;5026644;28;20049;-86
2022/09/16 05:06:31;;;;;;;0.10;0.10;;;8.40;99.90;;;;;;5026704;28;20056;-86
2022/09/16 05:08:59;;;;;;;0.28;0.17;;;8.60;99.90;;;;;;5026599;28;20088;-86
2022/09/16 05:11:30;;;;;;;0.08;0.08;;;8.70;99.90;;;;;;5008519;28;20072;-86
2022/09/16 05:14:01;;;;;;;0.00;0.00;;;8.80;99.90;;;;;;4991997;28;20080;-86
2022/09/16 05:16:27;;;;;;;0.00;0.00;;;8.90;99.90;;;;;;4992240;28;20120;-87
2022/09/16 05:18:55;;;;;;;28.27;1.85;;;9.00;99.90;;;;;;5008768;28;20052;-87
2022/09/16 05:21:24;;;;;;;0.00;0.00;;;9.10;99.90;;;;;;5008984;28;20132;-86
2022/09/16 05:23:51;;;;;;;1.38;1.27;;;9.10;99.90;;;;;;5008406;28;20059;-86
2022/09/16 05:26:22;;;;;;;0.00;0.00;;;9.00;99.90;;;;;;5008431;28;20041;-86
2022/09/16 05:28:51;;;;;;;0.00;0.00;;;9.80;99.90;;;;;;5008270;28;20496;-86
2022/09/16 05:31:26;;;;;;;0.00;0.00;;;8.80;99.90;;;;;;5008751;28;20060;-86
2022/09/16 05:34:02;;;;;;;0.00;0.00;;;8.70;99.90;;;;;;4991888;28;20041;-86
2022/09/16 05:36:42;;;;;;;10.05;0.15;;;8.70;99.90;;;;;;5008383;28;20054;-86
2022/09/16 05:39:11;;;;;;;0.00;0.00;;;8.60;99.90;;;;;;5008575;28;20980;-87
2022/09/16 05:41:37;;;;;;;0.10;0.10;;;9.00;99.90;;;;;;5008560;28;20579;-87
2022/09/16 05:44:11;;;;;;;1.38;0.47;;;8.70;99.90;;;;;;5026179;28;20140;-86
2022/09/16 05:46:40;;;;;;;0.00;0.00;;;7.90;99.90;;;;;;4992025;28;20060;-87
2022/09/16 05:49:09;;;;;;;0.20;0.20;;;8.60;99.90;;;;;;5007995;28;20128;-87
2022/09/16 05:51:37;;;;;;;0.00;0.00;;;8.30;99.90;;;;;;4991891;28;20504;-86
2022/09/16 05:54:03;;;;;;;0.32;0.32;;;8.70;99.90;;;;;;5008469;28;20053;-86
2022/09/16 05:56:30;;;;;;;0.00;0.00;;;8.80;99.90;;;;;;5026187;28;20136;-87
2022/09/16 05:59:00;;;;;;;0.25;0.25;;;8.80;99.90;;;;;;5026238;28;20053;-86
2022/09/16 06:01:34;;;;;;;0.10;0.10;;;8.90;99.90;;;;;;5026088;28;20068;-87
2022/09/16 06:04:02;;;;;;;0.00;0.00;;;9.00;99.90;;;;;;5029955;28;20107;-86
2022/09/16 06:06:30;;;;;;;0.65;0.60;;;9.00;99.90;;;;;;5011961;28;20053;-86
2022/09/16 06:08:58;;;;;;;0.00;0.00;;;9.20;99.90;;;;;;4996270;28;20120;-86
2022/09/16 06:11:26;;;;;;;5.82;0.80;;;9.30;99.90;;;;;;5012224;28;20045;-87
2022/09/16 06:13:58;;;;;;;0.00;0.00;;;9.50;99.90;;;;;;5012088;28;20389;-86
2022/09/16 06:16:25;;;;;;;0.00;0.00;;;10.10;99.90;;;;;;5029646;28;20049;-86
2022/09/16 06:18:52;;;;;;;1.65;1.08;;;10.10;99.90;;;;;;5011567;28;20395;-87
2022/09/16 06:21:18;;;;;;;1.08;0.98;;;10.20;99.90;;;;;;4995581;28;20060;-86
2022/09/16 06:23:44;;;;;;;0.00;0.00;;;10.50;99.90;;;;;;5029064;28;20053;-86
2022/09/16 06:26:18;;;;;;;0.00;0.00;;;10.80;99.90;;;;;;5029686;28;20056;-86
2022/09/16 06:28:45;;;;;;;1.85;0.65;;;10.60;99.90;;;;;;4995516;28;20045;-86
2022/09/16 06:31:13;;;;;;;0.10;0.10;;;10.40;99.90;;;;;;5011648;28;21528;-86
2022/09/16 06:33:43;;;;;;;0.00;0.00;;;10.20;99.90;;;;;;5011728;28;20455;-86
2022/09/16 06:36:12;;;;;;;0.00;0.00;;;10.00;99.90;;;;;;5029220;28;20054;-86
2022/09/16 06:38:38;;;;;;;0.08;0.08;;;9.90;99.90;;;;;;5029153;28;20115;-86
2022/09/16 06:41:06;;;;;;;0.00;0.00;;;10.00;99.90;;;;;;4994929;28;20043;-86
2022/09/16 06:43:34;;;;;;;0.00;0.00;;;9.80;99.90;;;;;;4995220;28;20057;-86
2022/09/16 06:46:02;;;;;;;0.17;0.17;;;9.90;99.90;;;;;;5011207;28;20369;-86
2022/09/16 06:48:28;;;;;;;0.00;0.00;;;9.90;99.90;;;;;;5011319;28;20083;-86
2022/09/16 06:51:17;;;;;;;0.00;0.00;;;10.00;99.90;;;;;;5029010;28;20103;-86
2022/09/16 06:53:44;;;;;;;0.00;0.00;;;10.00;99.90;;;;;;5010875;28;20510;-86
2022/09/16 06:56:12;;;;;;;0.10;0.10;;;10.10;99.90;;;;;;5028784;28;20053;-86
2022/09/16 06:58:41;;;;;;;0.75;0.38;;;10.30;99.90;;;;;;5029081;28;20057;-86
2022/09/16 07:01:08;;;;;;;0.03;0.03;;;10.50;99.90;;;;;;5028544;28;20049;-85
2022/09/16 07:03:44;;;;;;;0.08;0.08;;;10.60;99.90;;;;;;4994821;28;20110;-86
2022/09/16 07:06:12;;;;;;;5.90;0.68;;;10.70;99.90;;;;;;4994733;28;20470;-86
2022/09/16 07:08:39;;;;;;;0.00;0.00;;;10.70;99.90;;;;;;5028641;28;20056;-86
2022/09/16 07:11:06;;;;;;;0.00;0.00;;;10.80;99.90;;;;;;4994937;28;20110;-86
2022/09/16 07:13:32;;;;;;;0.35;0.20;;;10.80;99.90;;;;;;5028183;28;20562;-86
2022/09/16 07:16:00;;;;;;;0.10;0.10;;;10.80;99.90;;;;;;5010345;28;20045;-86
2022/09/16 07:18:27;;;;;;;0.00;0.00;;;10.80;99.90;;;;;;5028079;28;20050;-85
2022/09/16 07:20:59;;;;;;;0.00;0.00;;;11.40;99.90;;;;;;5010401;28;20087;-86
2022/09/16 07:23:24;;;;;;;0.00;0.00;;;10.20;99.90;;;;;;5010714;28;20049;-85
2022/09/16 07:26:12;;;;;;;0.00;0.00;;;11.30;99.90;;;;;;5028567;28;20095;-86
2022/09/16 07:28:39;;;;;;;0.00;0.00;;;11.40;99.90;;;;;;5028522;28;20148;-85
2022/09/16 07:31:11;;;;;;;0.00;0.00;;;12.10;99.90;;;;;;5010507;28;20053;-86
2022/09/16 07:33:39;;;;;;;0.00;0.00;;;11.80;99.90;;;;;;5028189;28;20081;-88
2022/09/16 07:36:06;;;;;;;0.10;0.05;;;12.30;99.90;;;;;;4993984;28;20119;-86
2022/09/16 07:38:36;;;;;;;0.88;0.65;;;11.60;99.90;;;;;;5010058;28;20064;-86
2022/09/16 07:41:04;;;;;;;0.38;0.30;;;10.80;99.90;;;;;;5027883;28;20550;-86
2022/09/16 07:43:30;;;;;;;0.65;0.65;;;11.40;99.90;;;;;;5010068;28;20455;-86
2022/09/16 07:45:57;;;;;;;2.20;1.20;;;11.40;99.90;;;;;;4994101;28;20045;-85
2022/09/16 07:48:23;;;;;;;0.00;0.00;;;11.50;99.90;;;;;;5009895;28;20131;-85
2022/09/16 07:51:03;;;;;;;0.00;0.00;;;11.50;99.90;;;;;;5010202;28;20120;-85
2022/09/16 07:53:30;;;;;;;0.85;0.52;;;11.50;99.90;;;;;;4993889;28;20053;-85
2022/09/16 07:56:07;;;;;;;1.05;0.82;;;11.70;99.90;;;;;;5027734;28;20053;-86
2022/09/16 07:58:33;;;;;;;0.35;0.28;;;11.90;99.90;;;;;;5027669;28;20056;-85
2022/09/16 08:01:02;;;;;;;4.95;0.85;;;12.10;99.90;;;;;;5009717;28;20049;-85
2022/09/16 08:03:28;;;;;;;0.55;0.32;;;12.40;99.90;;;;;;4993100;28;20056;-85
2022/09/16 08:06:00;;;;;;;0.20;0.15;;;12.50;99.90;;;;;;4993675;28;20041;-85
2022/09/16 08:08:25;;;;;;;0.75;0.45;;;12.60;99.90;;;;;;5009662;28;20053;-85
2022/09/16 08:10:55;;;;;;;9.85;0.88;;;12.70;99.90;;;;;;5009675;28;20439;-86
2022/09/16 08:13:21;;;;;;;0.00;0.00;;;12.70;99.90;;;;;;4993402;28;20073;-87
2022/09/16 08:15:47;;;;;;;0.05;0.05;;;12.90;99.90;;;;;;5027407;28;20115;-86
2022/09/16 08:18:12;;;;;;;0.00;0.00;;;13.70;99.90;;;;;;4993227;28;20411;-87
2022/09/16 08:20:38;;;;;;;0.10;0.10;;;13.90;99.90;;;;;;5027371;28;20047;-86
2022/09/16 08:23:04;;;;;;;0.63;0.63;;;14.00;99.90;;;;;;5010007;28;20136;-86
2022/09/16 08:25:30;;;;;;;0.38;0.35;;;13.00;99.90;;;;;;5008791;28;20114;-86
2022/09/16 08:27:55;;;;;;;0.10;0.10;;;13.50;99.90;;;;;;5027556;28;20049;-86
2022/09/16 08:30:21;;;;;;;0.00;0.00;;;13.60;99.90;;;;;;5009236;28;20107;-87
2022/09/16 08:32:47;;;;;;;0.45;0.30;;;13.70;99.90;;;;;;5027518;28;20085;-87
2022/09/16 08:35:13;;;;;;;0.00;0.00;;;13.90;99.90;;;;;;5027418;28;20080;-87
2022/09/16 08:37:40;;;;;;;0.00;0.00;;;14.60;99.90;;;;;;5009197;28;20787;-87
2022/09/16 08:40:06;;;;;;;0.05;0.05;;;15.20;99.90;;;;;;5027008;28;20045;-87
2022/09/16 08:43:10;;;;;;;0.00;0.00;;;15.30;99.90;;;;;;4992883;28;20061;-87
2022/09/16 08:45:47;;;;;;;17.33;2.03;;;15.40;99.90;;;;;;5008950;28;20049;-87
2022/09/16 08:48:31;;;;;;;0.08;0.08;;;15.80;99.90;;;;;;4993363;28;20049;-87
2022/09/16 08:50:59;;;;;;;4.63;0.85;;;16.80;99.90;;;;;;5026785;28;20057;-87
2022/09/16 08:53:48;;;;;;;0.32;0.30;;;16.30;99.90;;;;;;4992987;28;20115;-87
2022/09/16 08:56:20;;;;;;;0.10;0.10;;;16.70;99.90;;;;;;5008989;28;20071;-87
2022/09/16 08:58:49;;;;;;;0.30;0.25;;;17.10;99.90;;;;;;4992069;28;20058;-87
2022/09/16 09:01:23;;;;;;;0.00;0.00;;;17.90;99.90;;;;;;4992181;28;20049;-87
2022/09/16 09:03:48;;;;;;;0.00;0.00;;;17.50;99.90;;;;;;5008601;28;20068;-87
2022/09/16 09:06:23;;;;;;;1.90;0.98;;;17.60;99.90;;;;;;5008732;28;20492;-86
2022/09/16 09:09:14;;;;;;;0.40;0.30;;;18.20;99.90;;;;;;5008677;28;20480;-86
2022/09/16 09:12:06;;;;;;;0.00;0.00;;;18.50;99.90;;;;;;5008511;28;20061;-87
2022/09/16 09:14:32;;;;;;;0.00;0.00;;;18.50;99.90;;;;;;4992608;28;20132;-88
2022/09/16 09:17:16;;;;;;;0.20;0.15;;;18.80;99.90;;;;;;5008761;28;20125;-86
2022/09/16 09:20:20;;;;;;;1.27;0.85;;;19.20;72.30;;;;;;5026408;28;20553;-87
2022/09/16 09:23:12;;;;;;;0.00;0.00;;;17.40;55.40;;;;;;4968690;28;20818;-87
2022/09/16 09:25:49;;;;;;;0.30;0.25;;;17.60;61.40;;;;;;5011874;28;20119;-88
2022/09/16 09:28:24;;;;;;;0.00;0.00;;;17.70;49.80;;;;;;5009122;28;20084;-88
2022/09/16 09:31:13;;;;;;;0.52;0.47;;;17.40;53.70;;;;;;5026829;28;20057;-87
2022/09/16 09:34:12;;;;;;;0.00;0.00;;;16.90;57.90;;;;;;5008385;28;20088;-88
2022/09/16 09:36:56;;;;;;;1.08;0.57;;;16.90;68.30;;;;;;4975593;28;20455;-87
2022/09/16 09:39:37;;;;;;;1.45;0.65;;;17.00;57.60;;;;;;5012993;28;20045;-86
2022/09/16 09:42:20;;;;;;;0.00;0.00;;;17.30;67.00;;;;;;5032645;28;20053;-87
2022/09/16 09:44:54;;;;;;;1.17;0.65;;;17.30;59.70;;;;;;4997458;28;20053;-87
2022/09/16 09:47:41;;;;;;;0.10;0.10;;;17.50;53.70;;;;;;5014639;28;20421;-88
2022/09/16 09:50:32;;;;;;;0.70;0.35;;;17.70;39.90;;;;;;4998341;28;20602;-86
2022/09/16 09:53:09;;;;;;;0.00;0.00;;;17.80;52.10;;;;;;5032514;28;20102;-87
2022/09/16 09:55:37;;;;;;;1.88;0.90;;;17.30;61.30;;;;;;5032074;28;20060;-87
2022/09/16 09:58:33;;;;;;;0.57;0.30;;;17.40;73.60;;;;;;4993998;28;20645;-88
2022/09/16 10:01:00;;;;;;;0.10;0.10;;;16.20;90.70;;;;;;4993224;28;20500;-87
2022/09/16 10:03:27;;;;;;;0.32;0.32;;;16.40;99.50;;;;;;5010705;28;20454;-86
2022/09/16 10:05:53;;;;;;;0.00;0.00;;;15.90;99.60;;;;;;5009279;28;20926;-87
2022/09/16 10:08:31;;;;;;;0.90;0.43;;;16.60;97.30;;;;;;5009732;28;20077;-87
2022/09/16 10:11:13;;;;;;;0.15;0.15;;;17.00;87.80;;;;;;5011510;28;20057;-87
2022/09/16 10:13:47;;;;;;;0.75;0.45;;;17.20;77.50;;;;;;5011203;28;20065;-87
2022/09/16 10:16:16;;;;;;;0.10;0.10;;;17.20;80.90;;;;;;5009952;28;20814;-87
2022/09/16 10:18:43;;;;;;;0.65;0.47;;;16.10;92.80;;;;;;5009571;28;20558;-86
2022/09/16 10:21:13;;;;;;;0.00;0.00;;;16.40;92.20;;;;;;5009979;28;20037;-86
2022/09/16 10:23:39;;;;;;;0.28;0.10;;;16.70;77.50;;;;;;5010145;28;20046;-87
2022/09/16 10:26:13;;;;;;;0.35;0.35;;;17.10;66.00;;;;;;4993350;28;20050;-86
2022/09/16 10:28:39;;;;;;;0.00;0.00;;;17.00;72.70;;;;;;5010253;28;20100;-87
2022/09/16 10:31:07;;;;;;;0.45;0.32;;;17.40;55.60;;;;;;4991806;28;20081;-85
2022/09/16 10:33:39;;;;;;;0.55;0.52;;;17.50;70.90;;;;;;5009716;28;20120;-87
2022/09/16 10:36:16;;;;;;;0.00;0.00;;;17.50;72.20;;;;;;4992654;28;20061;-87
2022/09/16 10:38:47;;;;;;;0.88;0.85;;;17.90;68.80;;;;;;5010037;28;20492;-87
2022/09/16 10:41:20;;;;;;;26.48;0.93;;;16.90;86.00;;;;;;5009909;28;20049;-86
2022/09/16 10:44:11;;;;;;;1.88;0.30;;;16.70;73.50;;;;;;5008443;28;20054;-86
2022/09/16 10:46:37;;;;;;;0.00;0.00;;;17.70;66.30;;;;;;5011300;28;20072;-87
2022/09/16 10:49:11;;;;;;;0.65;0.63;;;17.90;63.40;;;;;;5010404;28;20050;-86
2022/09/16 10:51:37;;;;;;;0.50;0.30;;;18.00;41.30;;;;;;5012370;28;20121;-87
2022/09/16 10:54:07;;;;;;;1.60;0.47;;;18.40;48.10;;;;;;4992889;28;20128;-86
2022/09/16 10:56:45;;;;;;;0.80;0.80;;;17.90;43.90;;;;;;5010887;28;20407;-86
2022/09/16 10:59:21;;;;;;;0.45;0.35;;;17.60;46.50;;;;;;5029253;28;20033;-86
2022/09/16 11:02:03;;;;;;;0.00;0.00;;;17.10;69.40;;;;;;5011650;28;20135;-86
2022/09/16 11:04:43;;;;;;;1.95;0.60;;;16.70;65.80;;;;;;5028889;28;20119;-85
2022/09/16 11:07:33;;;;;;;0.98;0.70;;;15.70;58.80;;;;;;5028809;28;20041;-86
2022/09/16 11:10:18;;;;;;;0.00;0.00;;;16.20;68.90;;;;;;5010766;28;20538;-86
2022/09/16 11:13:24;;;;;;;0.20;0.10;;;17.50;99.90;;;;;;5011157;28;20038;-86
2022/09/16 11:16:05;;;;;;;0.20;0.17;;;15.70;99.90;;;;;;4931829;29;20085;-86
2022/09/16 11:18:45;;;;;;;0.20;0.13;;;15.20;99.90;;;;;;5006400;28;20056;-85
2022/09/16 11:21:55;;;;;;;0.00;0.00;;;15.10;99.90;;;;;;4995160;28;20049;-86
2022/09/16 11:24:30;;;;;;;0.00;0.00;;;15.40;99.90;;;;;;5010329;28;20045;-86
2022/09/16 11:27:14;;;;;;;0.00;0.00;;;16.20;99.90;;;;;;5011170;28;20053;-86
2022/09/16 11:30:00;;;;;;;0.28;0.20;;;17.10;96.20;;;;;;5028832;28;20045;-85
2022/09/16 11:32:34;;;;;;;0.63;0.57;;;17.50;85.20;;;;;;5028477;28;20049;-86
2022/09/16 11:35:26;;;;;;;0.82;0.63;;;17.50;99.90;;;;;;5030125;28;20053;-86
2022/09/16 11:37:58;;;;;;;0.10;0.10;;;15.30;99.90;;;;;;5028541;28;20496;-86
2022/09/16 11:40:43;;;;;;;0.13;0.10;;;13.80;99.90;;;;;;5010941;28;20061;-86
2022/09/16 11:43:28;;;;;;;0.00;0.00;;;12.90;99.90;;;;;;5011105;28;20049;-86
2022/09/16 11:46:06;;;;;;;0.17;0.17;;;12.90;99.90;;;;;;5010998;28;20523;-86
2022/09/16 11:48:58;;;;;;;2.10;0.68;;;13.10;99.90;;;;;;5028652;28;20107;-86
2022/09/16 11:51:42;;;;;;;2.92;1.50;;;13.40;99.90;;;;;;5010443;28;20045;-86
2022/09/16 11:54:29;;;;;;;0.10;0.10;;;14.00;99.90;;;;;;5010753;28;20061;-87
2022/09/16 11:57:03;;;;;;;0.00;0.00;;;14.30;99.90;;;;;;5007663;28;20053;-87
2022/09/16 11:59:38;;;;;;;0.20;0.20;;;14.40;99.90;;;;;;4991408;28;20129;-87
2022/09/16 12:02:24;;;;;;;0.70;0.70;;;15.10;99.90;;;;;;5007987;28;20124;-86
2022/09/16 12:05:04;;;;;;;1.08;0.63;;;15.70;99.90;;;;;;5007725;28;20119;-87
2022/09/16 12:07:43;;;;;;;0.10;0.10;;;16.10;99.90;;;;;;5008306;28;20053;-87
2022/09/16 12:10:23;;;;;;;0.52;0.43;;;16.40;99.90;;;;;;5008817;28;20069;-86
2022/09/16 12:12:56;;;;;;;1.02;0.70;;;16.80;99.90;;;;;;5009853;28;20187;-88
2022/09/16 12:15:29;;;;;;;2.42;1.60;;;17.40;99.90;;;;;;5007400;28;20497;-86
2022/09/16 12:18:01;;;;;;;0.30;0.20;;;18.20;71.70;;;;;;5007996;28;20061;-87
2022/09/16 12:20:32;;;;;;;4.45;0.40;;;18.10;59.70;;;;;;5009202;28;20499;-87
2022/09/16 12:23:08;;;;;;;0.45;0.45;;;18.20;51.80;;;;;;5007417;28;20066;-88
2022/09/16 12:25:45;;;;;;;1.20;0.40;;;18.50;57.50;;;;;;5009233;28;20049;-87
2022/09/16 12:28:32;;;;;;;2.55;1.13;;;18.10;30.60;;;;;;5008336;28;20061;-87
2022/09/16 12:31:13;;;;;;;0.05;0.05;;;17.80;58.10;;;;;;5006494;28;20492;-86
2022/09/16 12:33:58;;;;;;;1.50;0.45;;;17.70;44.00;;;;;;5007134;28;20057;-86
2022/09/16 12:36:30;;;;;;;6.00;0.87;;;17.80;45.10;;;;;;5008469;28;20053;-86
2022/09/16 12:38:59;;;;;;;0.43;0.32;;;19.00;27.40;;;;;;4990885;28;20439;-85
2022/09/16 12:41:40;;;;;;;0.00;0.00;;;18.10;52.70;;;;;;5006969;28;20584;-86
2022/09/16 12:44:18;;;;;;;1.65;0.80;;;17.60;58.10;;;;;;5006381;28;20054;-86
2022/09/16 12:47:03;;;;;;;1.40;0.38;;;17.50;61.70;;;;;;5007657;28;20501;-86
2022/09/16 12:49:41;;;;;;;0.28;0.08;;;17.50;50.80;;;;;;5007071;28;20077;-86
2022/09/16 12:52:38;;;;;;;2.45;0.68;;;17.70;56.00;;;;;;5007777;28;20108;-86
2022/09/16 12:55:22;;;;;;;0.47;0.25;;;18.20;44.10;;;;;;5008524;28;20507;-87
2022/09/16 12:58:18;;;;;;;0.20;0.20;;;18.40;34.50;;;;;;5020596;28;20519;-86
2022/09/16 13:01:11;;;;;;;0.45;0.03;;;18.60;46.30;;;;;;5029638;28;20048;-87
2022/09/16 13:03:41;;;;;;;1.42;0.85;;;19.00;36.00;;;;;;5014023;28;20476;-87
2022/09/16 13:06:22;;;;;;;0.22;0.22;;;19.30;44.50;;;;;;5009380;28;20936;-86
2022/09/16 13:08:48;;;;;;;0.25;0.15;;;18.70;50.40;;;;;;5027442;28;20053;-85
2022/09/16 13:11:23;;;;;;;0.00;0.00;;;18.00;68.20;;;;;;5027218;28;20041;-86
2022/09/16 13:13:53;;;;;;;0.10;0.10;;;17.80;78.60;;;;;;5027524;28;20110;-86
2022/09/16 13:16:34;;;;;;;0.45;0.35;;;18.20;57.30;;;;;;5026496;28;20187;-87
2022/09/16 13:19:48;;;;;;;0.32;0.30;;;18.20;73.00;;;;;;5026743;28;20187;-86
2022/09/16 13:22:37;;;;;;;0.47;0.35;;;17.10;45.60;;;;;;4991642;28;20068;-87
2022/09/16 13:25:09;;;;;;;15.38;0.77;;;16.80;62.10;;;;;;5010854;28;20176;-86
2022/09/16 13:27:37;;;;;;;0.38;0.03;;;16.60;69.90;;;;;;5027023;28;20049;-87